createdAt,value
2022-10-08T00:01:05.499Z,85.07
2022-10-08T00:03:34.376Z,85.15
2022-10-08T00:06:02.151Z,85.95
2022-10-08T00:08:29.537Z,86.07
2022-10-08T00:10:58.434Z,85.61
2022-10-08T00:13:26.216Z,85.28
2022-10-08T00:15:53.162Z,85.42
2022-10-08T00:18:20.675Z,87.42
2022-10-08T00:20:48.486Z,87.12
2022-10-08T00:23:16.926Z,87.07
2022-10-08T00:25:45.417Z,86.74
2022-10-08T00:28:15.849Z,86.98
2022-10-08T00:30:42.421Z,87.53
2022-10-08T00:33:10.542Z,87.80
2022-10-08T00:35:39.717Z,88.45
2022-10-08T00:38:07.536Z,88.24
2022-10-08T00:40:44.171Z,87.60
2022-10-08T00:43:37.176Z,87.17
2022-10-08T00:46:04.894Z,87.36
2022-10-08T00:48:31.540Z,88.10
2022-10-08T00:50:58.081Z,87.52
2022-10-08T00:53:24.619Z,88.62
2022-10-08T00:55:51.071Z,88.06
2022-10-08T00:58:20.167Z,88.34
2022-10-08T01:00:47.746Z,88.93
2022-10-08T01:03:14.521Z,89.53
2022-10-08T01:06:03.133Z,89.27
2022-10-08T01:08:29.433Z,88.64
2022-10-08T01:11:07.341Z,87.89
2022-10-08T01:13:54.471Z,87.85
2022-10-08T01:16:47.302Z,85.82
2022-10-08T01:19:19.638Z,84.92
2022-10-08T01:22:20.207Z,84.86
2022-10-08T01:25:10.552Z,85.72
2022-10-08T01:27:43.857Z,86.87
2022-10-08T01:30:14.649Z,87.47
2022-10-08T01:32:53.715Z,87.80
2022-10-08T01:35:24.946Z,87.93
2022-10-08T01:37:56.356Z,87.01
2022-10-08T01:40:27.469Z,85.55
2022-10-08T01:42:55.087Z,83.57
2022-10-08T01:45:32.507Z,84.57
2022-10-08T01:48:01.082Z,83.06
2022-10-08T01:50:36.933Z,86.67
2022-10-08T01:53:11.522Z,86.04
2022-10-08T01:55:41.970Z,86.08
2022-10-08T01:58:14.065Z,85.60
2022-10-08T02:00:42.315Z,85.41
2022-10-08T02:03:11.316Z,85.39
2022-10-08T02:05:39.862Z,85.22
2022-10-08T02:08:06.537Z,84.71
2022-10-08T02:10:33.134Z,85.10
2022-10-08T02:12:59.650Z,84.63
2022-10-08T02:15:37.186Z,82.62
2022-10-08T02:18:14.291Z,81.92
2022-10-08T02:20:59.748Z,83.54
2022-10-08T02:23:38.464Z,84.83
2022-10-08T02:26:10.412Z,84.29
2022-10-08T02:28:48.248Z,84.15
2022-10-08T02:31:23.298Z,85.80
2022-10-08T02:34:04.055Z,84.84
2022-10-08T02:36:36.137Z,85.36
2022-10-08T02:39:05.462Z,86.76
2022-10-08T02:41:35.678Z,86.36
2022-10-08T02:44:06.307Z,85.20
2022-10-08T02:46:37.103Z,84.69
2022-10-08T02:49:07.928Z,84.15
2022-10-08T02:51:38.305Z,85.12
2022-10-08T02:54:06.346Z,85.24
2022-10-08T02:57:09.566Z,85.43
2022-10-08T02:59:36.457Z,85.67
2022-10-08T03:02:04.436Z,86.90
2022-10-08T03:04:41.422Z,87.29
2022-10-08T03:07:08.446Z,87.46
2022-10-08T03:09:38.016Z,88.26
2022-10-08T03:12:05.647Z,88.14
2022-10-08T03:14:35.645Z,88.39
2022-10-08T03:17:02.144Z,88.48
2022-10-08T03:19:28.687Z,88.82
2022-10-08T03:21:56.225Z,89.24
2022-10-08T03:24:22.691Z,89.88
2022-10-08T03:26:49.162Z,89.21
2022-10-08T03:29:15.865Z,89.05
2022-10-08T03:31:42.285Z,89.44
2022-10-08T03:34:09.190Z,89.49
2022-10-08T03:36:35.727Z,89.91
2022-10-08T03:39:03.193Z,89.73
2022-10-08T03:41:31.433Z,90.05
2022-10-08T03:43:59.143Z,88.91
2022-10-08T03:46:25.637Z,89.22
2022-10-08T03:48:54.853Z,89.19
2022-10-08T03:51:21.640Z,89.59
2022-10-08T03:53:48.154Z,89.33
2022-10-08T03:56:19.343Z,90.35
2022-10-08T03:58:47.076Z,89.70
2022-10-08T04:01:17.565Z,90.50
2022-10-08T04:03:45.397Z,89.46
2022-10-08T04:06:12.440Z,89.83
2022-10-08T04:08:38.921Z,89.56
2022-10-08T04:11:07.627Z,89.45
2022-10-08T04:13:35.079Z,89.60
2022-10-08T04:16:06.535Z,89.48
2022-10-08T04:18:33.629Z,89.28
2022-10-08T04:21:01.349Z,89.24
2022-10-08T04:23:28.461Z,89.61
2022-10-08T04:25:55.175Z,89.40
2022-10-08T04:28:22.742Z,89.32
2022-10-08T04:31:04.676Z,89.23
2022-10-08T04:33:52.338Z,88.96
2022-10-08T04:36:21.611Z,89.52
2022-10-08T04:38:49.007Z,88.90
2022-10-08T04:41:21.745Z,88.83
2022-10-08T04:43:48.250Z,88.69
2022-10-08T04:46:16.803Z,89.24
2022-10-08T04:48:52.345Z,89.86
2022-10-08T04:51:19.676Z,89.18
2022-10-08T04:53:46.279Z,89.17
2022-10-08T04:56:15.654Z,88.15
2022-10-08T04:58:42.165Z,87.60
2022-10-08T05:01:10.421Z,87.62
2022-10-08T05:03:42.877Z,88.31
2022-10-08T05:06:09.941Z,87.41
2022-10-08T05:08:36.455Z,89.24
2022-10-08T05:11:03.011Z,90.35
2022-10-08T05:13:29.877Z,90.38
2022-10-08T05:15:56.397Z,89.63
2022-10-08T05:18:23.077Z,89.94
2022-10-08T05:20:49.541Z,90.33
2022-10-08T05:23:15.976Z,89.49
2022-10-08T05:25:42.924Z,89.25
2022-10-08T05:28:09.398Z,89.11
2022-10-08T05:30:35.936Z,89.41
2022-10-08T05:33:02.414Z,90.28
2022-10-08T05:35:28.875Z,89.96
2022-10-08T05:37:55.335Z,89.58
2022-10-08T05:40:22.110Z,90.04
2022-10-08T05:42:50.705Z,90.52
2022-10-08T05:45:19.730Z,90.30
2022-10-08T05:47:48.132Z,89.41
2022-10-08T05:50:15.032Z,88.07
2022-10-08T05:52:41.498Z,88.42
2022-10-08T05:55:08.382Z,88.24
2022-10-08T05:57:34.812Z,89.46
2022-10-08T06:00:01.234Z,89.65
2022-10-08T06:02:27.830Z,90.59
2022-10-08T06:04:54.359Z,91.14
2022-10-08T06:07:20.803Z,91.26
2022-10-08T06:09:47.312Z,90.62
2022-10-08T06:12:14.080Z,88.96
2022-10-08T06:14:40.917Z,87.43
2022-10-08T06:17:07.486Z,87.51
2022-10-08T06:19:35.437Z,89.60
2022-10-08T06:22:05.763Z,90.39
2022-10-08T06:24:33.430Z,89.62
2022-10-08T06:26:59.873Z,87.96
2022-10-08T06:29:26.340Z,88.30
2022-10-08T06:31:52.952Z,88.47
2022-10-08T06:34:19.733Z,88.14
2022-10-08T06:36:46.186Z,88.13
2022-10-08T06:39:15.339Z,88.03
2022-10-08T06:41:42.009Z,86.04
2022-10-08T06:44:13.397Z,85.62
2022-10-08T06:46:40.097Z,84.91
2022-10-08T06:49:06.626Z,84.52
2022-10-08T06:51:34.686Z,83.54
2022-10-08T06:54:07.288Z,83.44
2022-10-08T06:56:36.450Z,84.20
2022-10-08T06:59:04.191Z,83.92
2022-10-08T07:01:34.704Z,84.25
2022-10-08T07:04:03.724Z,83.19
2022-10-08T07:06:31.494Z,85.53
2022-10-08T07:08:59.536Z,85.11
2022-10-08T07:11:27.139Z,85.54
2022-10-08T07:13:58.136Z,85.62
2022-10-08T07:16:26.644Z,84.30
2022-10-08T07:18:54.760Z,83.40
2022-10-08T07:21:22.028Z,82.37
2022-10-08T07:23:49.043Z,79.82
2022-10-08T07:26:18.282Z,78.38
2022-10-08T07:28:55.706Z,76.15
2022-10-08T07:31:28.281Z,73.16
2022-10-08T07:33:55.817Z,71.34
2022-10-08T07:36:23.686Z,70.61
2022-10-08T07:38:54.956Z,72.54
2022-10-08T07:41:22.936Z,71.82
2022-10-08T07:43:54.782Z,72.08
2022-10-08T07:46:21.779Z,72.79
2022-10-08T07:48:48.356Z,73.19
2022-10-08T07:51:17.853Z,72.05
2022-10-08T07:53:44.564Z,71.82
2022-10-08T07:56:13.089Z,69.91
2022-10-08T07:58:39.998Z,69.90
2022-10-08T08:01:08.723Z,70.58
2022-10-08T08:03:38.047Z,69.92
2022-10-08T08:06:06.028Z,68.94
2022-10-08T08:08:34.711Z,66.84
2022-10-08T08:11:02.947Z,65.74
2022-10-08T08:13:34.432Z,64.21
2022-10-08T08:16:09.074Z,64.30
2022-10-08T08:18:41.401Z,65.29
2022-10-08T08:21:13.158Z,65.46
2022-10-08T08:23:42.643Z,65.33
2022-10-08T08:26:15.470Z,66.66
2022-10-08T08:28:42.284Z,65.91
2022-10-08T08:31:12.843Z,65.54
2022-10-08T08:33:39.483Z,64.77
2022-10-08T08:36:06.872Z,64.22
2022-10-08T08:38:39.902Z,65.29
2022-10-08T08:41:35.993Z,64.53
2022-10-08T08:44:11.547Z,64.55
2022-10-08T08:46:41.106Z,64.62
2022-10-08T08:49:26.256Z,64.29
2022-10-08T08:51:53.471Z,63.38
2022-10-08T08:54:22.642Z,61.97
2022-10-08T08:56:49.814Z,62.51
2022-10-08T08:59:33.649Z,64.21
2022-10-08T09:02:03.372Z,64.92
2022-10-08T09:04:51.660Z,64.46
2022-10-08T09:07:20.999Z,67.36
2022-10-08T09:09:55.620Z,66.25
2022-10-08T09:12:23.551Z,65.32
2022-10-08T09:14:54.561Z,65.69
2022-10-08T09:17:29.415Z,65.32
2022-10-08T09:19:55.969Z,65.82
2022-10-08T09:22:29.295Z,65.76
2022-10-08T09:24:59.751Z,66.04
2022-10-08T09:27:42.783Z,66.64
2022-10-08T09:30:29.503Z,65.30
2022-10-08T09:33:05.097Z,66.44
2022-10-08T09:35:33.303Z,66.50
2022-10-08T09:38:05.402Z,66.44
2022-10-08T09:40:32.493Z,66.31
2022-10-08T09:43:17.276Z,65.64
2022-10-08T09:45:48.508Z,65.70
2022-10-08T09:48:27.553Z,64.32
2022-10-08T09:50:55.992Z,64.55
2022-10-08T09:53:24.169Z,63.35
2022-10-08T09:55:57.906Z,63.54
2022-10-08T09:58:24.986Z,63.46
2022-10-08T10:01:07.022Z,62.49
2022-10-08T10:03:35.126Z,63.04
2022-10-08T10:06:02.000Z,61.45
2022-10-08T10:08:50.944Z,60.81
2022-10-08T10:11:26.888Z,62.07
2022-10-08T10:13:54.824Z,61.52
2022-10-08T10:16:28.677Z,61.50
2022-10-08T10:19:05.688Z,61.22
2022-10-08T10:21:34.971Z,61.36
2022-10-08T10:24:48.414Z,60.94
2022-10-08T10:27:28.401Z,59.27
2022-10-08T10:30:00.792Z,59.42
2022-10-08T10:32:40.288Z,59.94
2022-10-08T10:35:22.484Z,58.42
2022-10-08T10:38:08.942Z,59.03
2022-10-08T10:40:38.254Z,58.94
2022-10-08T10:43:25.425Z,58.93
2022-10-08T10:45:58.501Z,58.42
2022-10-08T10:48:25.009Z,58.85
2022-10-08T10:51:14.146Z,57.43
2022-10-08T10:54:07.749Z,57.15
2022-10-08T10:56:38.729Z,58.83
2022-10-08T10:59:20.271Z,57.80
2022-10-08T11:02:38.232Z,59.03
2022-10-08T11:05:13.290Z,57.90
2022-10-08T11:08:07.301Z,59.71
2022-10-08T11:10:58.695Z,59.57
2022-10-08T11:13:43.898Z,58.84
2022-10-08T11:16:21.782Z,59.25
2022-10-08T11:18:53.753Z,59.40
2022-10-08T11:21:29.314Z,58.87
2022-10-08T11:24:40.768Z,59.82
2022-10-08T11:27:28.642Z,60.91
2022-10-08T11:30:16.648Z,60.36
2022-10-08T11:32:45.596Z,59.25
2022-10-08T11:35:20.706Z,58.82
2022-10-08T11:37:50.227Z,60.15
2022-10-08T11:40:23.339Z,60.50
2022-10-08T11:43:00.144Z,61.06
2022-10-08T11:45:26.814Z,60.08
2022-10-08T11:47:54.736Z,60.50
2022-10-08T11:50:37.389Z,59.54
2022-10-08T11:53:09.788Z,59.35
2022-10-08T11:55:36.974Z,59.81
2022-10-08T11:58:08.503Z,58.65
2022-10-08T12:00:48.320Z,58.90
2022-10-08T12:03:25.000Z,58.99
2022-10-08T12:05:55.279Z,60.26
2022-10-08T12:08:47.561Z,58.50
2022-10-08T12:11:32.325Z,59.71
2022-10-08T12:14:11.105Z,59.21
2022-10-08T12:16:55.843Z,59.16
2022-10-08T12:19:34.929Z,59.05
2022-10-08T12:22:16.599Z,59.10
2022-10-08T12:24:50.303Z,58.61
2022-10-08T12:27:17.004Z,59.65
2022-10-08T12:30:01.355Z,61.53
2022-10-08T12:32:32.999Z,59.18
2022-10-08T12:35:00.151Z,58.84
2022-10-08T12:37:44.758Z,58.27
2022-10-08T12:40:39.539Z,57.84
2022-10-08T12:43:21.945Z,58.64
2022-10-08T12:45:56.091Z,58.58
2022-10-08T12:48:34.017Z,58.56
2022-10-08T12:51:10.419Z,58.92
2022-10-08T12:53:37.092Z,58.42
2022-10-08T12:56:04.516Z,59.30
2022-10-08T12:58:33.859Z,59.34
2022-10-08T13:01:02.552Z,58.89
2022-10-08T13:03:29.077Z,58.82
2022-10-08T13:06:00.818Z,57.04
2022-10-08T13:08:37.885Z,57.32
2022-10-08T13:11:15.231Z,57.09
2022-10-08T13:13:49.429Z,57.18
2022-10-08T13:16:47.486Z,58.39
2022-10-08T13:19:18.639Z,56.82
2022-10-08T13:21:59.735Z,56.62
2022-10-08T13:24:26.100Z,56.36
2022-10-08T13:26:54.236Z,56.11
2022-10-08T13:29:23.409Z,56.02
2022-10-08T13:32:11.843Z,55.98
2022-10-08T13:34:38.193Z,55.74
2022-10-08T13:37:08.207Z,55.66
2022-10-08T13:39:37.168Z,55.14
2022-10-08T13:42:07.473Z,55.25
2022-10-08T13:44:34.133Z,55.63
2022-10-08T13:47:03.701Z,55.37
2022-10-08T13:49:32.486Z,54.58
2022-10-08T13:51:59.080Z,57.07
2022-10-08T13:54:31.040Z,57.20
2022-10-08T13:56:57.768Z,56.09
2022-10-08T13:59:30.680Z,58.54
2022-10-08T14:01:57.554Z,58.54
2022-10-08T14:04:24.142Z,57.86
2022-10-08T14:06:54.480Z,57.34
2022-10-08T14:09:23.487Z,56.48
2022-10-08T14:12:00.122Z,56.44
2022-10-08T14:14:27.699Z,56.49
2022-10-08T14:16:54.413Z,56.89
2022-10-08T14:19:21.331Z,57.32
2022-10-08T14:21:50.314Z,57.72
2022-10-08T14:24:19.034Z,59.03
2022-10-08T14:26:45.484Z,59.35
2022-10-08T14:29:11.957Z,59.31
2022-10-08T14:31:38.597Z,59.59
2022-10-08T14:34:05.383Z,60.04
2022-10-08T14:36:42.410Z,60.96
2022-10-08T14:39:10.089Z,61.00
2022-10-08T14:41:36.929Z,60.89
2022-10-08T14:44:03.516Z,60.34
2022-10-08T14:46:29.940Z,61.97
2022-10-08T14:48:58.761Z,61.28
2022-10-08T14:51:25.302Z,61.26
2022-10-08T14:53:52.407Z,61.44
2022-10-08T14:56:18.912Z,61.50
2022-10-08T14:58:45.392Z,62.51
2022-10-08T15:01:11.946Z,63.45
2022-10-08T15:03:38.496Z,63.10
2022-10-08T15:06:05.005Z,62.72
2022-10-08T15:08:31.499Z,63.62
2022-10-08T15:11:01.733Z,64.07
2022-10-08T15:13:28.465Z,64.85
2022-10-08T15:16:14.190Z,66.59
2022-10-08T15:18:40.897Z,66.33
2022-10-08T15:21:07.349Z,68.33
2022-10-08T15:23:33.843Z,69.65
2022-10-08T15:26:02.311Z,71.25
2022-10-08T15:28:29.263Z,71.35
2022-10-08T15:31:11.927Z,73.85
2022-10-08T15:33:46.429Z,76.80
2022-10-08T15:36:23.167Z,80.83
2022-10-08T15:38:59.928Z,83.20
2022-10-08T15:41:27.749Z,85.73
2022-10-08T15:43:54.548Z,87.61
2022-10-08T15:46:22.524Z,88.54
2022-10-08T15:48:54.580Z,88.38
2022-10-08T15:51:22.195Z,87.23
2022-10-08T15:53:48.704Z,88.21
2022-10-08T15:56:15.299Z,88.15
2022-10-08T15:58:57.039Z,88.78
2022-10-08T16:01:24.714Z,89.37
2022-10-08T16:03:53.428Z,90.54
2022-10-08T16:06:27.559Z,89.71
2022-10-08T16:08:57.024Z,90.48
2022-10-08T16:11:29.390Z,89.51
2022-10-08T16:14:07.756Z,90.18
2022-10-08T16:16:35.000Z,89.39
2022-10-08T16:19:04.049Z,89.58
2022-10-08T16:21:32.555Z,89.59
2022-10-08T16:23:59.492Z,89.21
2022-10-08T16:26:26.347Z,89.24
2022-10-08T16:28:55.678Z,88.46
2022-10-08T16:31:25.426Z,89.76
2022-10-08T16:33:56.900Z,90.29
2022-10-08T16:36:23.590Z,89.49
2022-10-08T16:38:50.123Z,89.00
2022-10-08T16:41:21.861Z,88.48
2022-10-08T16:43:50.377Z,88.45
2022-10-08T16:46:18.711Z,89.21
2022-10-08T16:48:55.160Z,89.16
2022-10-08T16:51:23.348Z,90.36
2022-10-08T16:53:53.298Z,89.55
2022-10-08T16:56:20.641Z,89.38
2022-10-08T16:58:54.145Z,90.18
2022-10-08T17:01:21.303Z,90.09
2022-10-08T17:03:48.739Z,91.12
2022-10-08T17:06:16.219Z,89.50
2022-10-08T17:08:42.657Z,88.94
2022-10-08T17:11:12.166Z,89.68
2022-10-08T17:13:41.475Z,88.86
2022-10-08T17:16:09.435Z,89.35
2022-10-08T17:18:35.943Z,88.70
2022-10-08T17:21:03.736Z,88.61
2022-10-08T17:23:34.193Z,88.31
2022-10-08T17:26:04.344Z,88.19
2022-10-08T17:28:33.085Z,88.42
2022-10-08T17:31:01.241Z,88.80
2022-10-08T17:33:32.132Z,88.59
2022-10-08T17:36:20.558Z,88.92
2022-10-08T17:38:49.266Z,88.11
2022-10-08T17:41:18.107Z,88.22
2022-10-08T17:43:45.422Z,87.81
2022-10-08T17:46:17.740Z,87.64
2022-10-08T17:48:44.724Z,88.45
2022-10-08T17:51:16.102Z,88.07
2022-10-08T17:53:43.595Z,87.43
2022-10-08T17:56:13.196Z,88.45
2022-10-08T17:58:40.145Z,88.36
2022-10-08T18:01:16.118Z,88.16
2022-10-08T18:03:44.266Z,88.30
2022-10-08T18:06:11.595Z,89.00
2022-10-08T18:08:38.571Z,88.09
2022-10-08T18:11:07.943Z,88.97
2022-10-08T18:13:35.253Z,88.27
2022-10-08T18:16:15.984Z,88.93
2022-10-08T18:18:44.476Z,88.24
2022-10-08T18:21:17.134Z,87.89
2022-10-08T18:23:43.638Z,88.67
2022-10-08T18:26:20.612Z,88.67
2022-10-08T18:28:48.873Z,88.74
2022-10-08T18:31:17.287Z,90.14
2022-10-08T18:33:48.341Z,90.22
2022-10-08T18:36:22.974Z,90.12
2022-10-08T18:38:54.478Z,90.70
2022-10-08T18:41:24.594Z,90.33
2022-10-08T18:43:51.137Z,91.48
2022-10-08T18:46:19.555Z,91.11
2022-10-08T18:48:48.089Z,90.46
2022-10-08T18:51:17.693Z,90.29
2022-10-08T18:53:45.766Z,90.01
2022-10-08T18:56:17.846Z,90.67
2022-10-08T18:58:44.621Z,91.45
2022-10-08T19:01:18.198Z,90.16
2022-10-08T19:03:46.758Z,89.98
2022-10-08T19:06:13.296Z,90.28
2022-10-08T19:08:39.764Z,90.24
2022-10-08T19:11:18.157Z,90.15
2022-10-08T19:13:44.997Z,90.01
2022-10-08T19:16:15.323Z,89.93
2022-10-08T19:18:51.527Z,89.70
2022-10-08T19:21:18.482Z,89.93
2022-10-08T19:23:45.163Z,89.49
2022-10-08T19:26:11.902Z,89.25
2022-10-08T19:28:39.046Z,89.91
2022-10-08T19:31:13.607Z,90.51
2022-10-08T19:33:40.259Z,91.15
2022-10-08T19:36:06.809Z,89.82
2022-10-08T19:38:35.137Z,90.42
2022-10-08T19:41:06.434Z,89.83
2022-10-08T19:43:32.870Z,90.14
2022-10-08T19:46:03.807Z,89.99
2022-10-08T19:48:31.371Z,91.50
2022-10-08T19:51:11.008Z,91.42
2022-10-08T19:53:38.416Z,90.97
2022-10-08T19:56:09.958Z,90.18
2022-10-08T19:58:37.646Z,91.90
2022-10-08T20:01:07.654Z,91.37
2022-10-08T20:03:34.406Z,91.85
2022-10-08T20:06:09.894Z,91.46
2022-10-08T20:08:37.028Z,90.46
2022-10-08T20:11:09.060Z,90.35
2022-10-08T20:13:35.695Z,90.72
2022-10-08T20:16:10.922Z,91.35
2022-10-08T20:18:37.661Z,91.22
2022-10-08T20:21:06.634Z,92.32
2022-10-08T20:23:33.736Z,91.78
2022-10-08T20:26:18.505Z,91.88
2022-10-08T20:28:48.037Z,91.86
2022-10-08T20:31:23.138Z,91.51
2022-10-08T20:33:57.401Z,91.77
2022-10-08T20:36:24.112Z,91.59
2022-10-08T20:38:50.631Z,90.81
2022-10-08T20:41:17.437Z,91.98
2022-10-08T20:43:43.885Z,90.88
2022-10-08T20:46:12.495Z,91.80
2022-10-08T20:48:42.235Z,90.62
2022-10-08T20:51:14.531Z,90.58
2022-10-08T20:53:48.873Z,89.86
2022-10-08T20:56:15.658Z,90.36
2022-10-08T20:58:42.353Z,90.92
2022-10-08T21:01:14.099Z,90.41
2022-10-08T21:03:44.237Z,90.88
2022-10-08T21:06:15.678Z,91.00
2022-10-08T21:08:44.653Z,90.24
2022-10-08T21:11:23.347Z,90.75
2022-10-08T21:13:50.034Z,90.45
2022-10-08T21:16:28.599Z,90.88
2022-10-08T21:18:57.256Z,90.55
2022-10-08T21:21:24.045Z,90.19
2022-10-08T21:23:50.772Z,90.49
2022-10-08T21:26:17.098Z,90.40
2022-10-08T21:28:45.139Z,91.20
2022-10-08T21:31:12.542Z,89.76
2022-10-08T21:33:41.156Z,89.73
2022-10-08T21:36:10.919Z,90.20
2022-10-08T21:38:37.401Z,89.07
2022-10-08T21:41:14.178Z,89.20
2022-10-08T21:43:46.751Z,89.77
2022-10-08T21:46:16.180Z,89.50
2022-10-08T21:48:45.761Z,89.29
2022-10-08T21:51:17.060Z,88.63
2022-10-08T21:53:50.927Z,88.60
2022-10-08T21:56:19.651Z,89.11
2022-10-08T21:58:48.827Z,87.79
2022-10-08T22:01:39.123Z,87.35
2022-10-08T22:04:11.159Z,88.63
2022-10-08T22:06:40.190Z,88.79
2022-10-08T22:09:08.256Z,88.29
2022-10-08T22:11:34.807Z,88.18
2022-10-08T22:14:01.275Z,88.10
2022-10-08T22:16:29.602Z,88.84
2022-10-08T22:18:57.586Z,89.29
2022-10-08T22:21:24.106Z,89.26
2022-10-08T22:23:51.394Z,88.58
2022-10-08T22:26:23.933Z,88.49
2022-10-08T22:28:51.085Z,88.92
2022-10-08T22:31:19.073Z,89.17
2022-10-08T22:33:47.327Z,88.78
2022-10-08T22:36:22.419Z,89.52
2022-10-08T22:38:49.330Z,90.36
2022-10-08T22:41:22.014Z,89.63
2022-10-08T22:43:48.483Z,89.73
2022-10-08T22:46:21.932Z,90.44
2022-10-08T22:48:48.894Z,91.18
2022-10-08T22:51:19.318Z,90.18
2022-10-08T22:53:46.259Z,90.55
2022-10-08T22:56:15.368Z,90.55
2022-10-08T22:58:41.890Z,90.55
2022-10-08T23:01:22.888Z,90.33
2022-10-08T23:03:49.966Z,91.06
2022-10-08T23:06:28.234Z,91.30
2022-10-08T23:09:00.100Z,92.26
2022-10-08T23:11:27.659Z,91.41
2022-10-08T23:13:56.237Z,91.53
2022-10-08T23:16:24.056Z,91.11
2022-10-08T23:18:56.475Z,90.67
2022-10-08T23:21:23.184Z,90.85
2022-10-08T23:23:50.332Z,90.92
2022-10-08T23:26:17.581Z,90.52
2022-10-08T23:28:49.829Z,90.13
2022-10-08T23:31:20.135Z,90.68
2022-10-08T23:33:48.038Z,90.72
2022-10-08T23:36:18.506Z,90.75
2022-10-08T23:38:45.153Z,91.41
2022-10-08T23:41:13.014Z,91.79
2022-10-08T23:43:44.341Z,92.42
2022-10-08T23:46:13.780Z,91.71
2022-10-08T23:48:40.957Z,92.23
2022-10-08T23:51:08.321Z,92.58
2022-10-08T23:53:34.919Z,93.04
2022-10-08T23:56:01.779Z,92.85
2022-10-08T23:58:28.353Z,93.11
